North Lima, OH (44452)

1:16 AM EDT on July 08, 2015 (GMT -0400)
Poland Twp South | | Change Station
CLOSE
Current Station
Personal Weather Station
Location: Poland, OH
Elevation: 1114 ft
Nearby Weather Stations

Elev 1114 ft 41.00 °N, 80.60 °W | Updated 1 second ago

Overcast
Overcast
70.0 °F
Feels Like 70.0 °F
N
2.5
Wind Variable Wind from NW
Gusts 2.5 mph

Today
High -- | Low -- °F
--% Chance of Precip.
Yesterday
High -- | Low -- °F
Precip. -- in
5:58 AM 8:56 PM
Waning Gibbous, 57% visible
Pressure 30.01 in
Visibility -9999.0 miles
Clouds Mostly Cloudy 4000 ft
Dew Point Not available.
Humidity Not available.
Rainfall 0.00 in
Snow Depth Not available.
UV 0 out of 12
Pollen 3.20 out of 12
Air Quality Not available.
Flu Activity Not available.
METAR KUCP 080456Z AUTO 00000KT BKN040 21/21 A2999 RMK AO2 T02050205 SLP160 $

More Conditions Fewer Conditions

Pressure 30.01 in
Visibility -9999.0 miles
Clouds Mostly Cloudy 4000 ft
Dew Point Not available.
Humidity Not available.
Rainfall 0.00 in
Snow Depth Not available.
UV 0 out of 12
Pollen 3.20 out of 12
Air Quality Not available.
Flu Activity Not available.
METAR KUCP 080456Z AUTO 00000KT BKN040 21/21 A2999 RMK AO2 T02050205 SLP160 $

More Conditions Fewer Conditions

10-Day Weather Forecast

×

Almanac

Astronomy

Jul. 08, 2015 Rise Set
Actual Time
Civil Twilight
Nautical Twilight
Astronomical Twilight
Moon
Length of Visible Light
Length of Day
Tomorrow will be .
, % of the Moon is Illuminated

Today's Extremes

State Highs State Lows

Community

WunderPhotos

Upload Photos

1,836,057 photos uploaded!

WunderBlogs® & News

Nearby

Air Quality

  Air Quality AQ Index Pollutant
Not available.

Snow Depth

Station Depth Elevation

Earthquake Activity

City Distance Mag. Time & Date
Minimum magnitude displayed is 2.5.

Coastal Water Temperatures

Place Temperature

Stations

Nearby Weather Stations

Station Location Temp. Windchill Dew Point Humidity Wind Precip. Elev Updated Type